createdAt,value
2022-08-16T00:04:17.976Z,44.30
2022-08-16T00:09:41.824Z,43.90
2022-08-16T00:15:11.725Z,44.08
2022-08-16T00:20:34.455Z,43.95
2022-08-16T00:26:35.652Z,43.67
2022-08-16T00:31:58.639Z,44.08
2022-08-16T00:37:58.910Z,44.08
2022-08-16T00:43:16.821Z,43.81
2022-08-16T00:48:44.016Z,43.69
2022-08-16T00:54:08.240Z,43.81
2022-08-16T00:59:38.907Z,43.64
2022-08-16T01:05:16.803Z,43.77
2022-08-16T01:10:40.967Z,43.84
2022-08-16T01:16:21.859Z,43.74
2022-08-16T01:22:49.778Z,43.68
2022-08-16T01:27:45.825Z,43.87
2022-08-16T01:33:14.660Z,43.56
2022-08-16T01:38:40.187Z,43.63
2022-08-16T01:44:09.937Z,43.51
2022-08-16T01:49:45.490Z,43.40
2022-08-16T01:55:18.307Z,43.38
2022-08-16T02:00:40.479Z,43.55
2022-08-16T02:06:02.340Z,43.24
2022-08-16T02:11:48.256Z,43.47
2022-08-16T02:17:12.932Z,43.61
2022-08-16T02:22:46.909Z,43.13
2022-08-16T02:28:08.696Z,43.34
2022-08-16T02:33:43.717Z,43.30
2022-08-16T02:39:08.714Z,43.31
2022-08-16T02:44:30.511Z,43.27
2022-08-16T02:50:52.656Z,43.27
2022-08-16T02:55:41.266Z,43.14
2022-08-16T03:01:04.046Z,42.90
2022-08-16T03:06:42.067Z,43.15
2022-08-16T03:12:05.796Z,43.08
2022-08-16T03:17:32.353Z,43.26
2022-08-16T03:22:54.482Z,43.14
2022-08-16T03:28:18.506Z,43.14
2022-08-16T03:33:40.321Z,43.29
2022-08-16T03:39:03.524Z,43.12
2022-08-16T03:44:44.661Z,42.79
2022-08-16T03:50:26.223Z,42.97
2022-08-16T03:55:48.679Z,43.27
2022-08-16T04:01:14.446Z,42.95
2022-08-16T04:06:37.900Z,43.23
2022-08-16T04:12:00.032Z,43.24
2022-08-16T04:17:21.827Z,42.90
2022-08-16T04:22:46.103Z,43.01
2022-08-16T04:28:54.632Z,42.85
2022-08-16T04:33:59.352Z,42.79
2022-08-16T04:39:24.078Z,42.87
2022-08-16T04:44:53.656Z,42.72
2022-08-16T04:50:20.223Z,42.81
2022-08-16T04:55:43.865Z,43.13
2022-08-16T05:01:08.006Z,42.78
2022-08-16T05:06:42.386Z,42.87
2022-08-16T05:12:11.077Z,42.87
2022-08-16T05:17:33.042Z,42.79
2022-08-16T05:22:54.784Z,42.90
2022-08-16T05:28:18.808Z,42.56
2022-08-16T05:33:42.297Z,42.83
2022-08-16T05:39:08.608Z,42.91
2022-08-16T05:44:30.613Z,42.76
2022-08-16T05:49:53.507Z,43.05
2022-08-16T05:55:15.380Z,42.69
2022-08-16T06:00:37.314Z,42.81
2022-08-16T06:06:00.716Z,43.05
2022-08-16T06:11:22.830Z,42.79
2022-08-16T06:16:50.599Z,42.44
2022-08-16T06:22:37.351Z,43.08
2022-08-16T06:27:57.674Z,43.07
2022-08-16T06:33:22.799Z,43.49
2022-08-16T06:38:55.907Z,43.75
2022-08-16T06:44:21.058Z,43.85
2022-08-16T06:49:43.703Z,44.12
2022-08-16T06:55:17.461Z,44.08
2022-08-16T07:00:39.223Z,43.82
2022-08-16T07:06:05.710Z,44.36
2022-08-16T07:11:47.231Z,44.06
2022-08-16T07:17:11.340Z,44.21
2022-08-16T07:22:37.741Z,44.05
2022-08-16T07:28:01.756Z,44.10
2022-08-16T07:33:53.725Z,43.93
2022-08-16T07:39:05.389Z,43.95
2022-08-16T07:44:28.058Z,43.82
2022-08-16T07:50:57.767Z,43.53
2022-08-16T07:55:53.085Z,43.31
2022-08-16T08:01:16.598Z,43.59
2022-08-16T08:06:39.080Z,43.45
2022-08-16T08:12:05.348Z,43.19
2022-08-16T08:17:43.334Z,42.96
2022-08-16T08:23:07.981Z,42.86
2022-08-16T08:28:32.094Z,42.24
2022-08-16T08:33:56.891Z,42.21
2022-08-16T08:39:20.906Z,42.22
2022-08-16T08:44:42.824Z,41.83
2022-08-16T08:50:06.784Z,41.54
2022-08-16T08:55:28.913Z,41.68
2022-08-16T09:00:52.566Z,41.45
2022-08-16T09:06:14.288Z,40.90
2022-08-16T09:11:43.924Z,41.16
2022-08-16T09:17:21.608Z,41.16
2022-08-16T09:22:51.646Z,41.43
2022-08-16T09:29:14.043Z,41.80
2022-08-16T09:33:57.003Z,41.71
2022-08-16T09:39:19.025Z,42.33
2022-08-16T09:45:09.313Z,42.26
2022-08-16T09:50:37.278Z,42.01
2022-08-16T09:56:02.313Z,42.16
2022-08-16T10:01:24.724Z,42.54
2022-08-16T10:06:46.590Z,42.63
2022-08-16T10:12:28.238Z,42.50
2022-08-16T10:18:00.716Z,42.32
2022-08-16T10:23:23.511Z,42.34
2022-08-16T10:28:45.741Z,41.89
2022-08-16T10:34:24.056Z,41.89
2022-08-16T10:39:53.837Z,42.14
2022-08-16T10:45:18.582Z,41.82
2022-08-16T10:50:40.746Z,41.93
2022-08-16T10:56:51.451Z,42.12
2022-08-16T11:08:05.432Z,41.84
2022-08-16T11:19:05.498Z,41.41
2022-08-16T11:24:40.202Z,41.54
2022-08-16T11:30:09.260Z,41.27
2022-08-16T11:41:15.702Z,40.80
2022-08-16T11:46:44.813Z,40.60
2022-08-16T11:52:08.049Z,40.65
2022-08-16T11:57:29.929Z,41.06
2022-08-16T12:02:53.932Z,40.85
2022-08-16T12:08:15.828Z,40.78
2022-08-16T12:13:42.910Z,41.08
2022-08-16T12:19:10.691Z,40.78
2022-08-16T12:24:35.313Z,41.00
2022-08-16T12:29:58.717Z,41.07
2022-08-16T12:35:21.767Z,40.71
2022-08-16T12:40:49.383Z,40.68
2022-08-16T12:46:14.830Z,40.98
2022-08-16T12:51:58.731Z,40.57
2022-08-16T12:57:25.220Z,40.47
2022-08-16T13:02:59.909Z,40.63
2022-08-16T13:08:22.477Z,40.70
2022-08-16T13:13:54.744Z,40.27
2022-08-16T13:19:16.851Z,40.46
2022-08-16T13:24:38.876Z,40.56
2022-08-16T13:30:02.742Z,40.40
2022-08-16T13:35:55.429Z,40.46
2022-08-16T13:41:19.502Z,40.51
2022-08-16T13:46:41.909Z,40.13
2022-08-16T13:52:04.273Z,40.42
2022-08-16T13:57:53.330Z,40.61
2022-08-16T14:03:10.164Z,40.14
2022-08-16T14:08:32.592Z,40.19
2022-08-16T14:13:54.768Z,40.06
2022-08-16T14:19:22.305Z,40.21
2022-08-16T14:24:47.119Z,39.85
2022-08-16T14:30:12.052Z,39.93
2022-08-16T14:35:48.901Z,39.75
2022-08-16T14:41:12.003Z,39.87
2022-08-16T14:46:34.411Z,40.07
2022-08-16T14:52:02.088Z,40.28
2022-08-16T14:57:23.904Z,40.18
2022-08-16T15:02:53.140Z,40.60
2022-08-16T15:08:20.292Z,40.60
2022-08-16T15:13:42.256Z,40.50
2022-08-16T15:19:04.286Z,40.61
2022-08-16T15:24:26.310Z,40.27
2022-08-16T15:29:48.127Z,40.60
2022-08-16T15:35:15.446Z,40.67
2022-08-16T15:40:52.035Z,40.95
2022-08-16T15:46:54.007Z,41.19
2022-08-16T15:52:24.737Z,40.90
2022-08-16T15:57:51.463Z,40.76
2022-08-16T16:03:16.480Z,40.81
2022-08-16T16:08:41.606Z,40.68
2022-08-16T16:14:06.301Z,40.48
2022-08-16T16:19:29.178Z,40.35
2022-08-16T16:24:52.950Z,40.35
2022-08-16T16:30:37.149Z,40.40
2022-08-16T16:36:00.214Z,40.43
2022-08-16T16:41:25.537Z,40.56
2022-08-16T16:46:56.781Z,40.24
2022-08-16T16:52:31.326Z,40.55
2022-08-16T16:58:28.886Z,40.44
2022-08-16T17:03:53.605Z,40.27
2022-08-16T17:09:15.556Z,40.10
2022-08-16T17:14:42.597Z,40.11
2022-08-16T17:20:05.933Z,40.14
2022-08-16T17:25:36.799Z,40.19
2022-08-16T17:30:59.479Z,40.17
2022-08-16T17:36:36.622Z,39.72
2022-08-16T17:42:01.649Z,40.05
2022-08-16T17:47:23.421Z,39.82
2022-08-16T17:52:50.651Z,40.22
2022-08-16T17:58:22.930Z,39.88
2022-08-16T18:04:06.371Z,39.98
2022-08-16T18:09:27.551Z,40.00
2022-08-16T18:14:54.924Z,40.20
2022-08-16T18:20:42.484Z,39.90
2022-08-16T18:26:06.550Z,39.88
2022-08-16T18:31:28.406Z,40.38
2022-08-16T18:36:51.087Z,40.63
2022-08-16T18:42:15.190Z,40.75
2022-08-16T18:47:36.917Z,40.59
2022-08-16T18:53:00.888Z,40.80
2022-08-16T18:58:22.843Z,40.90
2022-08-16T19:03:44.538Z,40.00
2022-08-16T19:09:06.363Z,39.43
2022-08-16T19:14:30.249Z,39.71
2022-08-16T19:19:51.980Z,39.72
2022-08-16T19:25:13.904Z,39.71
2022-08-16T19:30:37.489Z,39.64
2022-08-16T19:35:59.875Z,39.92
2022-08-16T19:41:21.606Z,39.78
2022-08-16T19:46:45.100Z,40.04
2022-08-16T19:52:10.906Z,40.21
2022-08-16T19:57:34.074Z,39.92
2022-08-16T20:02:56.523Z,40.21
2022-08-16T20:08:19.033Z,40.17
2022-08-16T20:13:41.928Z,40.68
2022-08-16T20:19:04.688Z,41.26
2022-08-16T20:24:35.947Z,40.87
2022-08-16T20:29:58.063Z,41.37
2022-08-16T20:35:23.893Z,41.42
2022-08-16T20:40:45.728Z,41.78
2022-08-16T20:46:08.507Z,41.70
2022-08-16T20:51:30.898Z,42.02
2022-08-16T20:57:08.920Z,42.09
2022-08-16T21:02:30.627Z,42.46
2022-08-16T21:07:54.412Z,42.72
2022-08-16T21:13:22.129Z,42.73
2022-08-16T21:18:43.843Z,42.68
2022-08-16T21:24:05.819Z,43.04
2022-08-16T21:29:39.986Z,43.28
2022-08-16T21:35:11.414Z,43.23
2022-08-16T21:40:34.635Z,43.46
2022-08-16T21:46:01.182Z,43.48
2022-08-16T21:51:22.940Z,43.63
2022-08-16T21:56:44.727Z,43.57
2022-08-16T22:02:06.850Z,43.89
2022-08-16T22:07:28.683Z,44.00
2022-08-16T22:12:51.859Z,44.06
2022-08-16T22:18:14.471Z,44.17
2022-08-16T22:23:36.517Z,44.31
2022-08-16T22:29:04.724Z,44.40
2022-08-16T22:34:26.462Z,44.73
2022-08-16T22:39:48.583Z,44.63
2022-08-16T22:45:11.519Z,44.67
2022-08-16T22:50:36.439Z,44.43
2022-08-16T22:55:58.205Z,44.66
2022-08-16T23:01:23.114Z,44.48
2022-08-16T23:06:44.837Z,44.54
2022-08-16T23:12:07.645Z,44.55
2022-08-16T23:17:29.543Z,45.26
2022-08-16T23:22:58.324Z,44.92
2022-08-16T23:28:40.216Z,45.15
2022-08-16T23:34:02.130Z,45.09
2022-08-16T23:39:24.638Z,45.19
2022-08-16T23:44:57.912Z,44.96
2022-08-16T23:50:22.291Z,45.00
2022-08-16T23:55:47.635Z,45.38
